sensor_id;sensor_type;location;lat;lon;timestamp;P1;durP1;ratioP1;P2;durP2;ratioP2
1925;SDS011;964;42.606;23.588;2023-07-20T00:01:47;6.13;;;3.90;;
1925;SDS011;964;42.606;23.588;2023-07-20T00:04:14;6.43;;;3.93;;
1925;SDS011;964;42.606;23.588;2023-07-20T00:06:41;3.93;;;3.10;;
1925;SDS011;964;42.606;23.588;2023-07-20T00:09:07;5.27;;;2.90;;
1925;SDS011;964;42.606;23.588;2023-07-20T00:11:37;4.27;;;3.20;;
1925;SDS011;964;42.606;23.588;2023-07-20T00:14:04;3.13;;;2.60;;
1925;SDS011;964;42.606;23.588;2023-07-20T00:16:31;5.43;;;2.50;;
1925;SDS011;964;42.606;23.588;2023-07-20T00:18:58;7.90;;;2.27;;
1925;SDS011;964;42.606;23.588;2023-07-20T00:21:25;4.60;;;2.30;;
1925;SDS011;964;42.606;23.588;2023-07-20T00:23:51;4.00;;;2.20;;
1925;SDS011;964;42.606;23.588;2023-07-20T00:26:18;5.47;;;2.90;;
1925;SDS011;964;42.606;23.588;2023-07-20T00:28:46;5.50;;;4.10;;
1925;SDS011;964;42.606;23.588;2023-07-20T00:31:12;6.03;;;2.87;;
1925;SDS011;964;42.606;23.588;2023-07-20T00:33:39;5.33;;;2.83;;
1925;SDS011;964;42.606;23.588;2023-07-20T00:36:06;8.73;;;3.70;;
1925;SDS011;964;42.606;23.588;2023-07-20T00:38:32;6.10;;;3.70;;
1925;SDS011;964;42.606;23.588;2023-07-20T00:40:59;7.30;;;4.00;;
1925;SDS011;964;42.606;23.588;2023-07-20T00:43:26;5.80;;;3.73;;
1925;SDS011;964;42.606;23.588;2023-07-20T00:45:54;5.70;;;3.77;;
1925;SDS011;964;42.606;23.588;2023-07-20T00:48:21;9.23;;;4.40;;
1925;SDS011;964;42.606;23.588;2023-07-20T00:50:48;7.70;;;4.07;;
1925;SDS011;964;42.606;23.588;2023-07-20T00:53:15;6.07;;;4.20;;
1925;SDS011;964;42.606;23.588;2023-07-20T00:55:43;6.27;;;4.50;;
1925;SDS011;964;42.606;23.588;2023-07-20T00:58:10;4.83;;;3.80;;
1925;SDS011;964;42.606;23.588;2023-07-20T01:00:37;3.90;;;3.50;;
1925;SDS011;964;42.606;23.588;2023-07-20T01:03:05;4.20;;;3.60;;
1925;SDS011;964;42.606;23.588;2023-07-20T01:05:34;4.47;;;3.37;;
1925;SDS011;964;42.606;23.588;2023-07-20T01:08:07;9.40;;;3.67;;
1925;SDS011;964;42.606;23.588;2023-07-20T01:10:43;6.63;;;3.27;;
1925;SDS011;964;42.606;23.588;2023-07-20T01:13:12;5.93;;;3.50;;
1925;SDS011;964;42.606;23.588;2023-07-20T01:15:40;6.27;;;3.50;;
1925;SDS011;964;42.606;23.588;2023-07-20T01:18:09;9.67;;;4.23;;
1925;SDS011;964;42.606;23.588;2023-07-20T01:20:36;5.17;;;2.90;;
1925;SDS011;964;42.606;23.588;2023-07-20T01:23:17;5.70;;;3.50;;
1925;SDS011;964;42.606;23.588;2023-07-20T01:29:17;5.93;;;3.47;;
1925;SDS011;964;42.606;23.588;2023-07-20T01:31:59;8.80;;;3.37;;
1925;SDS011;964;42.606;23.588;2023-07-20T01:34:29;8.13;;;3.40;;
1925;SDS011;964;42.606;23.588;2023-07-20T01:36:56;11.70;;;3.50;;
1925;SDS011;964;42.606;23.588;2023-07-20T01:39:23;5.33;;;3.20;;
1925;SDS011;964;42.606;23.588;2023-07-20T01:41:50;6.00;;;3.50;;
1925;SDS011;964;42.606;23.588;2023-07-20T01:44:17;7.67;;;2.97;;
1925;SDS011;964;42.606;23.588;2023-07-20T01:46:44;8.00;;;3.50;;
1925;SDS011;964;42.606;23.588;2023-07-20T01:49:12;7.03;;;4.03;;
1925;SDS011;964;42.606;23.588;2023-07-20T01:51:39;3.77;;;3.40;;
1925;SDS011;964;42.606;23.588;2023-07-20T01:54:06;3.60;;;2.93;;
1925;SDS011;964;42.606;23.588;2023-07-20T01:56:32;6.10;;;3.60;;
1925;SDS011;964;42.606;23.588;2023-07-20T01:58:59;6.80;;;3.07;;
1925;SDS011;964;42.606;23.588;2023-07-20T02:01:25;6.00;;;3.47;;
1925;SDS011;964;42.606;23.588;2023-07-20T02:03:53;8.87;;;3.50;;
1925;SDS011;964;42.606;23.588;2023-07-20T02:06:21;6.97;;;3.40;;
1925;SDS011;964;42.606;23.588;2023-07-20T02:08:48;5.30;;;3.90;;
1925;SDS011;964;42.606;23.588;2023-07-20T02:11:14;5.00;;;3.50;;
1925;SDS011;964;42.606;23.588;2023-07-20T02:13:41;3.80;;;3.40;;
1925;SDS011;964;42.606;23.588;2023-07-20T02:16:08;4.10;;;3.50;;
1925;SDS011;964;42.606;23.588;2023-07-20T02:18:34;4.30;;;3.10;;
1925;SDS011;964;42.606;23.588;2023-07-20T02:21:02;8.10;;;3.23;;
1925;SDS011;964;42.606;23.588;2023-07-20T02:23:30;4.93;;;3.77;;
1925;SDS011;964;42.606;23.588;2023-07-20T02:25:56;6.00;;;3.40;;
1925;SDS011;964;42.606;23.588;2023-07-20T02:28:23;5.27;;;3.00;;
1925;SDS011;964;42.606;23.588;2023-07-20T02:30:50;4.73;;;3.10;;
1925;SDS011;964;42.606;23.588;2023-07-20T02:33:16;3.90;;;3.50;;
1925;SDS011;964;42.606;23.588;2023-07-20T02:35:43;8.70;;;3.60;;
1925;SDS011;964;42.606;23.588;2023-07-20T02:38:09;3.37;;;3.07;;
1925;SDS011;964;42.606;23.588;2023-07-20T02:40:37;5.00;;;3.70;;
1925;SDS011;964;42.606;23.588;2023-07-20T02:43:04;5.67;;;3.70;;
1925;SDS011;964;42.606;23.588;2023-07-20T02:45:30;5.00;;;3.00;;
1925;SDS011;964;42.606;23.588;2023-07-20T02:47:57;9.00;;;3.00;;
1925;SDS011;964;42.606;23.588;2023-07-20T02:50:24;4.83;;;3.57;;
1925;SDS011;964;42.606;23.588;2023-07-20T02:52:50;7.83;;;3.40;;
1925;SDS011;964;42.606;23.588;2023-07-20T02:55:17;6.40;;;3.57;;
1925;SDS011;964;42.606;23.588;2023-07-20T02:57:45;9.33;;;4.30;;
1925;SDS011;964;42.606;23.588;2023-07-20T03:00:12;4.90;;;3.10;;
1925;SDS011;964;42.606;23.588;2023-07-20T03:02:41;7.47;;;3.50;;
1925;SDS011;964;42.606;23.588;2023-07-20T03:05:08;8.70;;;3.57;;
1925;SDS011;964;42.606;23.588;2023-07-20T03:07:35;12.67;;;4.20;;
1925;SDS011;964;42.606;23.588;2023-07-20T03:10:02;10.63;;;4.60;;
1925;SDS011;964;42.606;23.588;2023-07-20T03:12:29;7.50;;;4.30;;
1925;SDS011;964;42.606;23.588;2023-07-20T03:14:58;4.60;;;3.50;;
1925;SDS011;964;42.606;23.588;2023-07-20T03:17:24;6.27;;;4.20;;
1925;SDS011;964;42.606;23.588;2023-07-20T03:19:51;14.23;;;5.47;;
1925;SDS011;964;42.606;23.588;2023-07-20T03:22:18;6.27;;;3.50;;
1925;SDS011;964;42.606;23.588;2023-07-20T03:24:44;8.53;;;3.43;;
1925;SDS011;964;42.606;23.588;2023-07-20T03:27:11;5.97;;;3.47;;
1925;SDS011;964;42.606;23.588;2023-07-20T03:29:37;6.90;;;3.87;;
1925;SDS011;964;42.606;23.588;2023-07-20T03:32:06;5.70;;;3.37;;
1925;SDS011;964;42.606;23.588;2023-07-20T03:34:33;5.90;;;3.70;;
1925;SDS011;964;42.606;23.588;2023-07-20T03:36:59;6.37;;;3.97;;
1925;SDS011;964;42.606;23.588;2023-07-20T03:39:26;11.60;;;4.07;;
1925;SDS011;964;42.606;23.588;2023-07-20T03:41:53;4.10;;;2.50;;
1925;SDS011;964;42.606;23.588;2023-07-20T03:44:19;8.10;;;3.83;;
1925;SDS011;964;42.606;23.588;2023-07-20T03:46:46;4.50;;;3.53;;
1925;SDS011;964;42.606;23.588;2023-07-20T03:49:14;7.10;;;3.30;;
1925;SDS011;964;42.606;23.588;2023-07-20T03:51:40;5.80;;;3.00;;
1925;SDS011;964;42.606;23.588;2023-07-20T03:54:07;6.17;;;3.17;;
1925;SDS011;964;42.606;23.588;2023-07-20T03:56:34;5.67;;;3.10;;
1925;SDS011;964;42.606;23.588;2023-07-20T03:59:01;4.40;;;3.67;;
1925;SDS011;964;42.606;23.588;2023-07-20T04:01:28;4.00;;;3.20;;
1925;SDS011;964;42.606;23.588;2023-07-20T04:03:54;5.60;;;3.60;;
1925;SDS011;964;42.606;23.588;2023-07-20T04:06:23;5.67;;;3.73;;
1925;SDS011;964;42.606;23.588;2023-07-20T04:08:50;5.70;;;3.10;;
1925;SDS011;964;42.606;23.588;2023-07-20T04:11:17;8.33;;;3.40;;
1925;SDS011;964;42.606;23.588;2023-07-20T04:13:43;6.00;;;3.70;;
1925;SDS011;964;42.606;23.588;2023-07-20T04:16:10;6.10;;;3.60;;
1925;SDS011;964;42.606;23.588;2023-07-20T04:18:36;4.10;;;2.70;;
1925;SDS011;964;42.606;23.588;2023-07-20T04:21:03;7.43;;;3.37;;
1925;SDS011;964;42.606;23.588;2023-07-20T04:23:31;6.77;;;3.33;;
1925;SDS011;964;42.606;23.588;2023-07-20T04:25:58;6.20;;;3.23;;
1925;SDS011;964;42.606;23.588;2023-07-20T04:40:09;4.20;;;3.03;;
1925;SDS011;964;42.606;23.588;2023-07-20T04:42:36;6.50;;;3.47;;
1925;SDS011;964;42.606;23.588;2023-07-20T04:45:03;4.60;;;3.40;;
1925;SDS011;964;42.606;23.588;2023-07-20T04:47:31;6.43;;;3.80;;
1925;SDS011;964;42.606;23.588;2023-07-20T04:49:57;7.50;;;3.00;;
1925;SDS011;964;42.606;23.588;2023-07-20T04:52:24;6.03;;;3.50;;
1925;SDS011;964;42.606;23.588;2023-07-20T04:54:51;4.67;;;3.30;;
1925;SDS011;964;42.606;23.588;2023-07-20T04:57:19;6.23;;;3.37;;
1925;SDS011;964;42.606;23.588;2023-07-20T04:59:45;11.83;;;3.57;;
1925;SDS011;964;42.606;23.588;2023-07-20T05:02:14;10.23;;;4.03;;
1925;SDS011;964;42.606;23.588;2023-07-20T05:04:40;6.10;;;3.13;;
1925;SDS011;964;42.606;23.588;2023-07-20T05:07:07;6.80;;;3.50;;
1925;SDS011;964;42.606;23.588;2023-07-20T05:09:33;3.90;;;3.50;;
1925;SDS011;964;42.606;23.588;2023-07-20T05:12:00;4.97;;;3.00;;
1925;SDS011;964;42.606;23.588;2023-07-20T05:14:28;9.50;;;3.93;;
1925;SDS011;964;42.606;23.588;2023-07-20T05:16:55;8.40;;;4.93;;
1925;SDS011;964;42.606;23.588;2023-07-20T05:19:21;6.70;;;4.33;;
1925;SDS011;964;42.606;23.588;2023-07-20T05:21:48;8.63;;;4.00;;
1925;SDS011;964;42.606;23.588;2023-07-20T05:24:14;8.37;;;4.27;;
1925;SDS011;964;42.606;23.588;2023-07-20T05:26:41;6.20;;;3.90;;
1925;SDS011;964;42.606;23.588;2023-07-20T05:29:07;6.23;;;4.20;;
1925;SDS011;964;42.606;23.588;2023-07-20T05:31:35;8.27;;;4.47;;
1925;SDS011;964;42.606;23.588;2023-07-20T05:34:02;8.47;;;4.40;;
1925;SDS011;964;42.606;23.588;2023-07-20T05:36:29;7.30;;;4.37;;
1925;SDS011;964;42.606;23.588;2023-07-20T05:38:56;7.23;;;5.23;;
1925;SDS011;964;42.606;23.588;2023-07-20T05:41:22;6.03;;;4.70;;
1925;SDS011;964;42.606;23.588;2023-07-20T05:43:49;7.80;;;3.70;;
1925;SDS011;964;42.606;23.588;2023-07-20T05:46:15;7.37;;;4.40;;
1925;SDS011;964;42.606;23.588;2023-07-20T05:48:43;8.10;;;3.80;;
1925;SDS011;964;42.606;23.588;2023-07-20T05:51:10;6.23;;;4.43;;
1925;SDS011;964;42.606;23.588;2023-07-20T05:53:37;8.07;;;4.00;;
1925;SDS011;964;42.606;23.588;2023-07-20T05:56:05;7.63;;;4.00;;
1925;SDS011;964;42.606;23.588;2023-07-20T05:58:35;7.20;;;4.53;;
1925;SDS011;964;42.606;23.588;2023-07-20T06:01:03;7.47;;;4.20;;
1925;SDS011;964;42.606;23.588;2023-07-20T06:03:30;4.57;;;3.70;;
1925;SDS011;964;42.606;23.588;2023-07-20T06:06:00;14.73;;;4.53;;
1925;SDS011;964;42.606;23.588;2023-07-20T06:08:27;5.30;;;4.50;;
1925;SDS011;964;42.606;23.588;2023-07-20T06:10:53;5.60;;;3.87;;
1925;SDS011;964;42.606;23.588;2023-07-20T06:13:20;4.60;;;4.03;;
1925;SDS011;964;42.606;23.588;2023-07-20T06:15:47;9.03;;;4.33;;
1925;SDS011;964;42.606;23.588;2023-07-20T06:18:13;7.10;;;4.13;;
1925;SDS011;964;42.606;23.588;2023-07-20T06:20:40;5.83;;;4.50;;
1925;SDS011;964;42.606;23.588;2023-07-20T06:23:08;8.67;;;4.03;;
1925;SDS011;964;42.606;23.588;2023-07-20T06:25:35;7.20;;;4.70;;
1925;SDS011;964;42.606;23.588;2023-07-20T06:28:01;5.87;;;4.00;;
1925;SDS011;964;42.606;23.588;2023-07-20T06:30:30;5.00;;;4.30;;
1925;SDS011;964;42.606;23.588;2023-07-20T06:32:56;11.20;;;5.00;;
1925;SDS011;964;42.606;23.588;2023-07-20T06:35:23;7.93;;;4.60;;
1925;SDS011;964;42.606;23.588;2023-07-20T06:37:49;7.93;;;4.50;;
1925;SDS011;964;42.606;23.588;2023-07-20T06:40:17;8.10;;;4.27;;
1925;SDS011;964;42.606;23.588;2023-07-20T06:42:44;6.53;;;4.53;;
1925;SDS011;964;42.606;23.588;2023-07-20T06:45:11;9.10;;;4.53;;
1925;SDS011;964;42.606;23.588;2023-07-20T06:47:38;10.53;;;4.60;;
1925;SDS011;964;42.606;23.588;2023-07-20T06:50:06;5.47;;;4.90;;
1925;SDS011;964;42.606;23.588;2023-07-20T06:52:33;4.43;;;3.97;;
1925;SDS011;964;42.606;23.588;2023-07-20T06:55:00;9.07;;;4.00;;
1925;SDS011;964;42.606;23.588;2023-07-20T06:57:28;7.47;;;4.00;;
1925;SDS011;964;42.606;23.588;2023-07-20T06:59:55;10.93;;;4.00;;
1925;SDS011;964;42.606;23.588;2023-07-20T07:02:22;6.80;;;4.10;;
1925;SDS011;964;42.606;23.588;2023-07-20T07:04:48;10.80;;;3.90;;
1925;SDS011;964;42.606;23.588;2023-07-20T07:07:15;7.20;;;3.40;;
1925;SDS011;964;42.606;23.588;2023-07-20T07:09:42;8.50;;;4.40;;
1925;SDS011;964;42.606;23.588;2023-07-20T07:12:08;7.23;;;3.90;;
1925;SDS011;964;42.606;23.588;2023-07-20T07:14:36;8.70;;;5.30;;
1925;SDS011;964;42.606;23.588;2023-07-20T07:17:03;10.40;;;4.67;;
1925;SDS011;964;42.606;23.588;2023-07-20T07:19:31;11.90;;;4.53;;
1925;SDS011;964;42.606;23.588;2023-07-20T07:21:57;5.20;;;3.90;;
1925;SDS011;964;42.606;23.588;2023-07-20T07:24:24;9.73;;;3.80;;
1925;SDS011;964;42.606;23.588;2023-07-20T07:26:50;13.00;;;4.00;;
1925;SDS011;964;42.606;23.588;2023-07-20T07:29:17;8.50;;;4.20;;
1925;SDS011;964;42.606;23.588;2023-07-20T07:31:45;7.47;;;3.93;;
1925;SDS011;964;42.606;23.588;2023-07-20T07:34:12;8.80;;;4.07;;
1925;SDS011;964;42.606;23.588;2023-07-20T07:36:38;5.50;;;3.90;;
1925;SDS011;964;42.606;23.588;2023-07-20T07:39:05;9.87;;;4.57;;
1925;SDS011;964;42.606;23.588;2023-07-20T07:41:31;7.23;;;4.50;;
1925;SDS011;964;42.606;23.588;2023-07-20T07:43:58;9.33;;;3.70;;
1925;SDS011;964;42.606;23.588;2023-07-20T07:46:24;7.07;;;3.90;;
1925;SDS011;964;42.606;23.588;2023-07-20T07:48:53;7.27;;;4.10;;
1925;SDS011;964;42.606;23.588;2023-07-20T07:51:19;10.90;;;3.70;;
1925;SDS011;964;42.606;23.588;2023-07-20T07:53:46;8.63;;;4.10;;
1925;SDS011;964;42.606;23.588;2023-07-20T07:56:14;6.63;;;4.73;;
1925;SDS011;964;42.606;23.588;2023-07-20T07:58:41;5.30;;;3.80;;
1925;SDS011;964;42.606;23.588;2023-07-20T08:01:08;10.40;;;4.20;;
1925;SDS011;964;42.606;23.588;2023-07-20T08:03:34;5.43;;;3.50;;
1925;SDS011;964;42.606;23.588;2023-07-20T08:06:03;8.60;;;3.80;;
1925;SDS011;964;42.606;23.588;2023-07-20T08:08:30;4.73;;;3.50;;
1925;SDS011;964;42.606;23.588;2023-07-20T08:10:57;7.90;;;4.00;;
1925;SDS011;964;42.606;23.588;2023-07-20T08:13:24;7.03;;;3.70;;
1925;SDS011;964;42.606;23.588;2023-07-20T08:15:51;9.90;;;4.20;;
1925;SDS011;964;42.606;23.588;2023-07-20T08:18:19;7.40;;;3.33;;
1925;SDS011;964;42.606;23.588;2023-07-20T08:20:46;11.00;;;3.90;;
1925;SDS011;964;42.606;23.588;2023-07-20T08:23:15;5.63;;;4.37;;
1925;SDS011;964;42.606;23.588;2023-07-20T08:25:42;10.30;;;4.23;;
1925;SDS011;964;42.606;23.588;2023-07-20T08:28:09;6.13;;;3.77;;
1925;SDS011;964;42.606;23.588;2023-07-20T08:30:40;5.70;;;4.00;;
1925;SDS011;964;42.606;23.588;2023-07-20T08:33:07;5.97;;;3.40;;
1925;SDS011;964;42.606;23.588;2023-07-20T08:35:34;9.60;;;4.40;;
1925;SDS011;964;42.606;23.588;2023-07-20T08:38:00;8.10;;;3.87;;
1925;SDS011;964;42.606;23.588;2023-07-20T08:40:28;7.63;;;4.07;;
1925;SDS011;964;42.606;23.588;2023-07-20T08:42:55;8.27;;;3.90;;
1925;SDS011;964;42.606;23.588;2023-07-20T08:45:24;7.50;;;4.27;;
1925;SDS011;964;42.606;23.588;2023-07-20T08:47:53;6.60;;;4.43;;
1925;SDS011;964;42.606;23.588;2023-07-20T08:50:22;10.73;;;4.17;;
1925;SDS011;964;42.606;23.588;2023-07-20T08:52:50;8.70;;;5.53;;
1925;SDS011;964;42.606;23.588;2023-07-20T08:55:18;6.93;;;5.10;;
1925;SDS011;964;42.606;23.588;2023-07-20T08:57:47;5.47;;;4.07;;
1925;SDS011;964;42.606;23.588;2023-07-20T09:00:16;6.90;;;4.03;;
1925;SDS011;964;42.606;23.588;2023-07-20T09:02:46;14.60;;;4.70;;
1925;SDS011;964;42.606;23.588;2023-07-20T09:05:15;5.63;;;4.60;;
1925;SDS011;964;42.606;23.588;2023-07-20T09:07:42;8.40;;;4.20;;
1925;SDS011;964;42.606;23.588;2023-07-20T09:10:08;6.73;;;3.97;;
1925;SDS011;964;42.606;23.588;2023-07-20T09:12:37;10.33;;;4.27;;
1925;SDS011;964;42.606;23.588;2023-07-20T09:15:09;10.70;;;3.97;;
1925;SDS011;964;42.606;23.588;2023-07-20T09:17:37;7.90;;;4.33;;
1925;SDS011;964;42.606;23.588;2023-07-20T09:20:04;7.50;;;4.30;;
1925;SDS011;964;42.606;23.588;2023-07-20T09:22:35;7.50;;;4.07;;
1925;SDS011;964;42.606;23.588;2023-07-20T09:25:05;6.80;;;3.93;;
1925;SDS011;964;42.606;23.588;2023-07-20T09:27:35;6.97;;;3.73;;
1925;SDS011;964;42.606;23.588;2023-07-20T09:30:03;6.50;;;3.50;;
1925;SDS011;964;42.606;23.588;2023-07-20T09:32:38;7.80;;;3.77;;
1925;SDS011;964;42.606;23.588;2023-07-20T09:35:06;7.30;;;3.60;;
1925;SDS011;964;42.606;23.588;2023-07-20T09:37:33;5.97;;;3.23;;
1925;SDS011;964;42.606;23.588;2023-07-20T09:40:00;4.00;;;3.10;;
1925;SDS011;964;42.606;23.588;2023-07-20T09:42:27;5.43;;;3.30;;
1925;SDS011;964;42.606;23.588;2023-07-20T09:44:54;8.43;;;3.20;;
1925;SDS011;964;42.606;23.588;2023-07-20T09:47:23;5.73;;;2.90;;
1925;SDS011;964;42.606;23.588;2023-07-20T09:49:57;5.90;;;2.73;;
1925;SDS011;964;42.606;23.588;2023-07-20T09:52:24;6.80;;;3.50;;
1925;SDS011;964;42.606;23.588;2023-07-20T09:54:52;8.20;;;3.20;;
1925;SDS011;964;42.606;23.588;2023-07-20T09:57:20;6.27;;;3.43;;
1925;SDS011;964;42.606;23.588;2023-07-20T09:59:47;3.17;;;2.80;;
1925;SDS011;964;42.606;23.588;2023-07-20T10:02:18;7.77;;;2.83;;
1925;SDS011;964;42.606;23.588;2023-07-20T10:04:48;5.40;;;2.77;;
1925;SDS011;964;42.606;23.588;2023-07-20T10:07:19;6.80;;;3.10;;
1925;SDS011;964;42.606;23.588;2023-07-20T10:10:06;4.90;;;3.10;;
1925;SDS011;964;42.606;23.588;2023-07-20T10:12:43;5.20;;;2.47;;
1925;SDS011;964;42.606;23.588;2023-07-20T10:15:11;4.90;;;2.97;;
1925;SDS011;964;42.606;23.588;2023-07-20T10:17:47;8.50;;;2.80;;
1925;SDS011;964;42.606;23.588;2023-07-20T10:20:25;7.45;;;2.88;;
1925;SDS011;964;42.606;23.588;2023-07-20T10:22:53;4.60;;;2.58;;
1925;SDS011;964;42.606;23.588;2023-07-20T10:25:22;4.60;;;2.40;;
1925;SDS011;964;42.606;23.588;2023-07-20T10:27:49;4.17;;;2.90;;
1925;SDS011;964;42.606;23.588;2023-07-20T10:30:16;7.47;;;3.30;;
1925;SDS011;964;42.606;23.588;2023-07-20T10:32:44;8.00;;;3.23;;
1925;SDS011;964;42.606;23.588;2023-07-20T10:35:12;5.00;;;3.00;;
1925;SDS011;964;42.606;23.588;2023-07-20T10:37:50;8.23;;;4.43;;
1925;SDS011;964;42.606;23.588;2023-07-20T10:40:31;5.63;;;2.70;;
1925;SDS011;964;42.606;23.588;2023-07-20T10:43:02;4.10;;;3.13;;
1925;SDS011;964;42.606;23.588;2023-07-20T10:45:35;10.63;;;3.17;;
1925;SDS011;964;42.606;23.588;2023-07-20T10:48:15;5.57;;;2.90;;
1925;SDS011;964;42.606;23.588;2023-07-20T10:50:45;5.33;;;2.70;;
1925;SDS011;964;42.606;23.588;2023-07-20T10:53:37;4.70;;;2.83;;
1925;SDS011;964;42.606;23.588;2023-07-20T10:56:07;7.60;;;2.77;;
1925;SDS011;964;42.606;23.588;2023-07-20T10:58:37;5.60;;;2.63;;
1925;SDS011;964;42.606;23.588;2023-07-20T11:01:04;4.23;;;2.00;;
1925;SDS011;964;42.606;23.588;2023-07-20T11:03:32;6.77;;;3.37;;
1925;SDS011;964;42.606;23.588;2023-07-20T11:05:59;7.00;;;2.57;;
1925;SDS011;964;42.606;23.588;2023-07-20T11:09:04;7.90;;;3.20;;
1925;SDS011;964;42.606;23.588;2023-07-20T11:11:32;4.10;;;3.70;;
1925;SDS011;964;42.606;23.588;2023-07-20T11:14:00;4.73;;;2.67;;
1925;SDS011;964;42.606;23.588;2023-07-20T11:16:38;6.50;;;2.87;;
1925;SDS011;964;42.606;23.588;2023-07-20T11:19:12;6.30;;;2.93;;
1925;SDS011;964;42.606;23.588;2023-07-20T11:21:41;4.13;;;2.67;;
1925;SDS011;964;42.606;23.588;2023-07-20T11:24:10;6.93;;;3.30;;
1925;SDS011;964;42.606;23.588;2023-07-20T11:26:42;4.90;;;3.10;;
1925;SDS011;964;42.606;23.588;2023-07-20T11:29:10;4.33;;;3.23;;
1925;SDS011;964;42.606;23.588;2023-07-20T11:31:37;5.30;;;3.23;;
1925;SDS011;964;42.606;23.588;2023-07-20T11:34:05;6.03;;;3.50;;
1925;SDS011;964;42.606;23.588;2023-07-20T11:36:32;5.53;;;2.75;;
1925;SDS011;964;42.606;23.588;2023-07-20T11:39:00;2.92;;;2.40;;
1925;SDS011;964;42.606;23.588;2023-07-20T11:41:31;5.80;;;2.60;;
1925;SDS011;964;42.606;23.588;2023-07-20T11:43:58;7.47;;;4.03;;
1925;SDS011;964;42.606;23.588;2023-07-20T11:46:24;4.38;;;2.70;;
1925;SDS011;964;42.606;23.588;2023-07-20T11:48:55;6.07;;;3.25;;
1925;SDS011;964;42.606;23.588;2023-07-20T11:51:23;6.28;;;3.50;;
1925;SDS011;964;42.606;23.588;2023-07-20T11:53:50;6.05;;;3.13;;
1925;SDS011;964;42.606;23.588;2023-07-20T11:56:17;8.57;;;3.65;;
1925;SDS011;964;42.606;23.588;2023-07-20T11:58:45;4.07;;;3.63;;
1925;SDS011;964;42.606;23.588;2023-07-20T12:01:13;5.72;;;3.92;;
1925;SDS011;964;42.606;23.588;2023-07-20T12:03:41;7.60;;;4.13;;
1925;SDS011;964;42.606;23.588;2023-07-20T12:06:08;4.75;;;4.10;;
1925;SDS011;964;42.606;23.588;2023-07-20T12:08:37;4.10;;;3.70;;
1925;SDS011;964;42.606;23.588;2023-07-20T12:11:05;6.43;;;3.80;;
1925;SDS011;964;42.606;23.588;2023-07-20T12:13:38;5.93;;;3.92;;
1925;SDS011;964;42.606;23.588;2023-07-20T12:16:13;7.82;;;4.80;;
1925;SDS011;964;42.606;23.588;2023-07-20T12:18:40;7.07;;;3.85;;
1925;SDS011;964;42.606;23.588;2023-07-20T12:21:07;6.25;;;4.35;;
1925;SDS011;964;42.606;23.588;2023-07-20T12:23:34;7.80;;;4.57;;
1925;SDS011;964;42.606;23.588;2023-07-20T12:26:03;5.25;;;4.03;;
1925;SDS011;964;42.606;23.588;2023-07-20T12:28:32;5.18;;;4.13;;
1925;SDS011;964;42.606;23.588;2023-07-20T12:30:58;5.85;;;5.05;;
1925;SDS011;964;42.606;23.588;2023-07-20T12:33:26;6.75;;;3.78;;
1925;SDS011;964;42.606;23.588;2023-07-20T12:35:54;10.45;;;5.25;;
1925;SDS011;964;42.606;23.588;2023-07-20T12:38:23;5.82;;;4.13;;
1925;SDS011;964;42.606;23.588;2023-07-20T12:40:50;5.30;;;4.82;;
1925;SDS011;964;42.606;23.588;2023-07-20T12:43:17;8.10;;;4.22;;
1925;SDS011;964;42.606;23.588;2023-07-20T12:45:43;6.55;;;4.72;;
1925;SDS011;964;42.606;23.588;2023-07-20T12:48:10;8.27;;;4.10;;
1925;SDS011;964;42.606;23.588;2023-07-20T12:50:38;5.10;;;3.13;;
1925;SDS011;964;42.606;23.588;2023-07-20T12:53:04;6.28;;;3.80;;
1925;SDS011;964;42.606;23.588;2023-07-20T12:55:31;6.93;;;3.53;;
1925;SDS011;964;42.606;23.588;2023-07-20T12:57:58;3.45;;;3.15;;
1925;SDS011;964;42.606;23.588;2023-07-20T13:00:25;5.47;;;2.95;;
1925;SDS011;964;42.606;23.588;2023-07-20T13:02:52;6.82;;;3.00;;
1925;SDS011;964;42.606;23.588;2023-07-20T13:05:19;5.00;;;3.42;;
1925;SDS011;964;42.606;23.588;2023-07-20T13:07:47;7.60;;;4.38;;
1925;SDS011;964;42.606;23.588;2023-07-20T13:10:13;4.25;;;3.15;;
1925;SDS011;964;42.606;23.588;2023-07-20T13:12:40;4.68;;;2.83;;
1925;SDS011;964;42.606;23.588;2023-07-20T13:15:07;5.78;;;3.17;;
1925;SDS011;964;42.606;23.588;2023-07-20T13:17:35;6.85;;;3.00;;
1925;SDS011;964;42.606;23.588;2023-07-20T13:20:04;6.18;;;3.13;;
1925;SDS011;964;42.606;23.588;2023-07-20T13:22:32;7.25;;;3.10;;
1925;SDS011;964;42.606;23.588;2023-07-20T13:25:01;6.68;;;3.13;;
1925;SDS011;964;42.606;23.588;2023-07-20T13:27:31;5.70;;;2.88;;
1925;SDS011;964;42.606;23.588;2023-07-20T13:29:57;2.95;;;2.67;;
1925;SDS011;964;42.606;23.588;2023-07-20T13:32:25;5.95;;;2.97;;
1925;SDS011;964;42.606;23.588;2023-07-20T13:34:52;9.80;;;5.78;;
1925;SDS011;964;42.606;23.588;2023-07-20T13:37:19;6.32;;;3.03;;
1925;SDS011;964;42.606;23.588;2023-07-20T13:39:46;5.35;;;3.13;;
1925;SDS011;964;42.606;23.588;2023-07-20T13:42:14;4.40;;;2.90;;
1925;SDS011;964;42.606;23.588;2023-07-20T13:44:42;3.75;;;2.25;;
1925;SDS011;964;42.606;23.588;2023-07-20T13:47:08;4.70;;;2.78;;
1925;SDS011;964;42.606;23.588;2023-07-20T13:49:35;9.10;;;3.30;;
1925;SDS011;964;42.606;23.588;2023-07-20T13:52:02;4.68;;;2.85;;
1925;SDS011;964;42.606;23.588;2023-07-20T13:54:29;6.28;;;2.75;;
1925;SDS011;964;42.606;23.588;2023-07-20T13:56:55;5.13;;;2.30;;
1925;SDS011;964;42.606;23.588;2023-07-20T13:59:23;5.40;;;2.70;;
1925;SDS011;964;42.606;23.588;2023-07-20T14:01:50;4.95;;;2.83;;
1925;SDS011;964;42.606;23.588;2023-07-20T14:04:17;7.93;;;2.28;;
1925;SDS011;964;42.606;23.588;2023-07-20T14:06:43;4.95;;;3.05;;
1925;SDS011;964;42.606;23.588;2023-07-20T14:09:10;3.97;;;2.65;;
1925;SDS011;964;42.606;23.588;2023-07-20T14:11:37;4.68;;;2.88;;
1925;SDS011;964;42.606;23.588;2023-07-20T14:14:04;4.28;;;2.70;;
1925;SDS011;964;42.606;23.588;2023-07-20T14:16:32;10.55;;;2.78;;
1925;SDS011;964;42.606;23.588;2023-07-20T14:18:58;7.22;;;2.55;;
1925;SDS011;964;42.606;23.588;2023-07-20T14:21:25;3.40;;;2.55;;
1925;SDS011;964;42.606;23.588;2023-07-20T14:23:52;7.80;;;2.83;;
1925;SDS011;964;42.606;23.588;2023-07-20T14:26:19;4.50;;;2.65;;
1925;SDS011;964;42.606;23.588;2023-07-20T14:28:45;8.10;;;3.03;;
1925;SDS011;964;42.606;23.588;2023-07-20T14:31:12;3.55;;;2.60;;
1925;SDS011;964;42.606;23.588;2023-07-20T14:33:40;2.05;;;1.90;;
1925;SDS011;964;42.606;23.588;2023-07-20T14:36:07;6.13;;;2.58;;
1925;SDS011;964;42.606;23.588;2023-07-20T14:38:34;8.20;;;2.60;;
1925;SDS011;964;42.606;23.588;2023-07-20T14:41:01;6.07;;;2.30;;
1925;SDS011;964;42.606;23.588;2023-07-20T14:43:28;4.23;;;2.10;;
1925;SDS011;964;42.606;23.588;2023-07-20T14:45:54;5.13;;;2.83;;
1925;SDS011;964;42.606;23.588;2023-07-20T14:48:21;3.70;;;2.47;;
1925;SDS011;964;42.606;23.588;2023-07-20T14:50:49;3.97;;;2.30;;
1925;SDS011;964;42.606;23.588;2023-07-20T14:53:15;5.10;;;2.90;;
1925;SDS011;964;42.606;23.588;2023-07-20T14:55:42;7.90;;;3.40;;
1925;SDS011;964;42.606;23.588;2023-07-20T14:58:09;5.67;;;3.00;;
1925;SDS011;964;42.606;23.588;2023-07-20T15:00:36;8.43;;;2.90;;
1925;SDS011;964;42.606;23.588;2023-07-20T15:03:02;4.63;;;2.80;;
1925;SDS011;964;42.606;23.588;2023-07-20T15:05:30;3.10;;;2.20;;
1925;SDS011;964;42.606;23.588;2023-07-20T15:07:58;5.80;;;2.57;;
1925;SDS011;964;42.606;23.588;2023-07-20T15:10:25;7.17;;;2.50;;
1925;SDS011;964;42.606;23.588;2023-07-20T15:12:51;6.63;;;2.70;;
1925;SDS011;964;42.606;23.588;2023-07-20T15:15:18;6.87;;;3.00;;
1925;SDS011;964;42.606;23.588;2023-07-20T15:17:45;4.70;;;2.57;;
1925;SDS011;964;42.606;23.588;2023-07-20T15:20:12;6.00;;;2.70;;
1925;SDS011;964;42.606;23.588;2023-07-20T15:22:39;7.50;;;2.80;;
1925;SDS011;964;42.606;23.588;2023-07-20T15:25:08;6.00;;;2.90;;
1925;SDS011;964;42.606;23.588;2023-07-20T15:27:36;10.60;;;3.03;;
1925;SDS011;964;42.606;23.588;2023-07-20T15:30:04;4.73;;;2.40;;
1925;SDS011;964;42.606;23.588;2023-07-20T15:32:31;4.00;;;2.87;;
1925;SDS011;964;42.606;23.588;2023-07-20T15:34:58;3.43;;;2.30;;